Time;durP1;ratioP1;P1;durP2;ratioP2;P2;SDS_P1;SDS_P2;PMS_P1;PMS_P2;Temp;Humidity;BMP_temperature;BMP_pressure;BME280_temperature;BME280_humidity;BME280_pressure;Samples;Min_cycle;Max_cycle;Signal;HPM_P1;HPM_P2
2022/01/27 00:00:04;;;;;;;0.20;0.20;;;;;;;18.78;40.25;102535.69;5150562;27;20057;-30
2022/01/27 00:05:03;;;;;;;0.30;0.30;;;;;;;18.79;40.32;102535.47;5142403;27;20421;-30
2022/01/27 00:07:30;;;;;;;0.22;0.22;;;;;;;18.79;40.36;102534.63;5149374;27;20039;-30
2022/01/27 00:10:15;;;;;;;0.20;0.20;;;;;;;18.78;40.25;102531.03;5166860;27;20056;-30
2022/01/27 00:12:42;;;;;;;0.30;0.30;;;;;;;18.79;40.44;102520.84;5162261;27;20437;-30
2022/01/27 00:15:11;;;;;;;0.20;0.20;;;;;;;18.79;40.49;102529.94;5147252;27;20185;-30
2022/01/27 00:17:43;;;;;;;0.30;0.30;;;;;;;18.77;40.46;102523.81;5166627;27;20054;-30
2022/01/27 00:20:10;;;;;;;0.30;0.30;;;;;;;18.78;40.33;102519.13;5142391;27;20045;-30
2022/01/27 00:22:36;;;;;;;0.20;0.20;;;;;;;18.77;40.34;102518.28;5141457;27;20039;-30
2022/01/27 00:25:03;;;;;;;0.30;0.30;;;;;;;18.78;40.28;102525.53;5144207;27;20083;-30
2022/01/27 00:27:28;;;;;;;0.20;0.20;;;;;;;18.79;40.26;102526.34;5142455;27;20074;-30
2022/01/27 00:29:54;;;;;;;0.20;0.20;;;;;;;18.78;40.27;102519.13;5146387;27;20050;-30
2022/01/27 00:32:20;;;;;;;0.20;0.20;;;;;;;18.78;40.29;102508.09;5140028;27;20181;-30
2022/01/27 00:34:46;;;;;;;0.20;0.20;;;;;;;18.78;40.36;102499.81;5124041;27;20134;-30
2022/01/27 00:37:11;;;;;;;0.28;0.28;;;;;;;18.77;40.51;102500.91;5144896;27;20435;-30
2022/01/27 00:39:37;;;;;;;0.20;0.20;;;;;;;18.78;40.36;102489.63;5137659;27;20050;-30
2022/01/27 00:42:03;;;;;;;0.30;0.30;;;;;;;18.77;40.48;102492.63;5144392;27;20093;-30
2022/01/27 00:44:29;;;;;;;0.20;0.20;;;;;;;18.76;40.35;102477.16;5137347;27;20500;-30
2022/01/27 00:46:55;;;;;;;0.30;0.30;;;;;;;18.77;40.32;102476.06;5130193;28;20070;-31
2022/01/27 00:49:21;;;;;;;0.30;0.30;;;;;;;18.76;40.32;102466.09;5132035;28;20047;-30
2022/01/27 00:51:47;;;;;;;0.20;0.20;;;;;;;18.75;40.60;102464.44;5127886;28;20116;-30
2022/01/27 00:54:19;;;;;;;0.30;0.30;;;;;;;18.75;40.56;102457.00;5130115;28;20047;-30
2022/01/27 00:56:54;;;;;;;0.30;0.30;;;;;;;18.76;40.40;102442.09;5130191;28;20138;-30
2022/01/27 01:00:01;;;;;;;0.22;0.22;;;;;;;18.77;40.29;102437.41;5130128;28;20143;-31
2022/01/27 01:02:17;;;;;;;0.20;0.20;;;;;;;18.76;40.32;102417.25;5118173;28;21725;-30
2022/01/27 01:04:48;;;;;;;0.20;0.20;;;;;;;18.76;40.38;102419.19;5131029;28;20047;-30
2022/01/27 01:07:15;;;;;;;0.30;0.30;;;;;;;18.75;40.56;102400.97;5131433;28;20046;-30
2022/01/27 01:10:35;;;;;;;0.30;0.30;;;;;;;18.75;40.29;102415.59;5125779;28;20039;-30
2022/01/27 01:13:19;;;;;;;0.20;0.20;;;;;;;18.76;40.46;102405.38;5094461;28;20040;-30
2022/01/27 01:15:18;;;;;;;0.20;0.20;;;;;;;18.76;40.45;102406.22;5113357;28;20410;-30
2022/01/27 01:17:56;;;;;;;0.30;0.30;;;;;;;18.75;40.51;102398.19;5131526;28;20051;-30
2022/01/27 01:20:31;;;;;;;0.20;0.20;;;;;;;18.76;40.26;102391.59;5114724;28;20054;-31
2022/01/27 01:31:29;;;;;;;0.30;0.30;;;;;;;18.75;40.54;102412.84;5099648;28;20741;-30
2022/01/27 01:34:28;;;;;;;0.20;0.20;;;;;;;18.75;40.41;102417.50;5125844;28;20108;-30
2022/01/27 01:37:17;;;;;;;0.30;0.30;;;;;;;18.75;40.55;102409.25;5115635;28;20370;-30
2022/01/27 01:39:29;;;;;;;0.30;0.30;;;;;;;18.75;40.46;102403.72;5114812;28;20162;-30
2022/01/27 01:41:56;;;;;;;0.20;0.20;;;;;;;18.73;40.50;102401.19;5108919;28;20130;-32
2022/01/27 01:44:23;;;;;;;0.28;0.28;;;;;;;18.74;40.52;102396.53;5111598;28;20130;-30
2022/01/27 01:46:49;;;;;;;0.30;0.30;;;;;;;18.75;40.42;102410.06;5127965;28;20040;-30
2022/01/27 01:49:15;;;;;;;0.30;0.30;;;;;;;18.74;40.51;102405.63;5130431;28;20062;-30
2022/01/27 01:51:43;;;;;;;0.30;0.30;;;;;;;18.75;40.35;102409.25;5126951;28;20035;-30
2022/01/27 01:54:10;;;;;;;0.20;0.20;;;;;;;18.75;40.38;102398.19;5124194;28;20042;-30
2022/01/27 01:56:36;;;;;;;0.20;0.20;;;;;;;18.74;40.52;102396.53;5128572;27;20458;-30
2022/01/27 01:59:05;;;;;;;0.30;0.30;;;;;;;18.73;40.37;102392.06;5129627;28;20050;-30
2022/01/27 02:01:32;;;;;;;0.25;0.25;;;;;;;18.74;40.41;102388.25;5111021;28;20051;-30
2022/01/27 02:04:03;;;;;;;0.30;0.30;;;;;;;18.73;40.43;102381.03;5125330;28;20054;-30
2022/01/27 02:06:35;;;;;;;0.30;0.30;;;;;;;18.74;40.50;102374.44;5124451;28;20071;-30
2022/01/27 02:19:52;;;;;;;0.20;0.20;;;;;;;18.73;40.44;102351.50;5112240;28;20035;-30
2022/01/27 02:22:18;;;;;;;0.30;0.30;;;;;;;18.74;40.49;102349.59;5123140;28;20053;-30
2022/01/27 02:24:43;;;;;;;0.20;0.20;;;;;;;18.73;40.51;102336.88;5112556;28;20085;-30
2022/01/27 02:27:09;;;;;;;0.30;0.30;;;;;;;18.72;40.44;102340.72;5125949;28;20430;-30
2022/01/27 02:29:35;;;;;;;0.20;0.20;;;;;;;18.72;40.60;102344.31;5129537;28;20393;-30
2022/01/27 02:32:01;;;;;;;0.30;0.30;;;;;;;18.72;40.57;102355.34;5126779;28;20100;-30
2022/01/27 02:34:27;;;;;;;0.20;0.20;;;;;;;18.74;40.62;102360.66;5111146;28;20050;-30
2022/01/27 02:36:52;;;;;;;0.22;0.22;;;;;;;18.72;40.43;102344.31;5125163;28;20077;-31
2022/01/27 02:39:19;;;;;;;0.30;0.30;;;;;;;18.73;40.49;102334.09;5128969;28;20047;-30
2022/01/27 02:41:52;;;;;;;0.20;0.20;;;;;;;18.73;40.48;102325.84;5108341;28;20079;-30
2022/01/27 02:44:39;;;;;;;0.30;0.30;;;;;;;18.73;40.56;102315.63;5103286;28;20130;-30
2022/01/27 02:47:05;;;;;;;0.20;0.20;;;;;;;18.73;40.42;102325.84;5112570;28;20050;-30
2022/01/27 02:49:31;;;;;;;0.30;0.30;;;;;;;18.73;40.57;102336.88;5128277;27;20666;-31
2022/01/27 02:51:57;;;;;;;0.20;0.20;;;;;;;18.72;40.55;102327.75;5123793;28;21149;-30
2022/01/27 02:54:22;;;;;;;0.25;0.25;;;;;;;18.73;40.65;102332.19;5127461;28;20099;-30
2022/01/27 02:56:49;;;;;;;0.20;0.20;;;;;;;18.72;40.52;102329.69;5128069;28;20040;-30
2022/01/27 02:59:16;;;;;;;0.20;0.20;;;;;;;18.72;40.48;102329.69;5125667;28;20086;-30
2022/01/27 03:01:45;;;;;;;0.30;0.30;;;;;;;18.71;40.41;102331.59;5122923;27;20042;-30
2022/01/27 03:04:10;;;;;;;0.30;0.30;;;;;;;18.71;40.59;102326.09;5089918;28;20187;-31
2022/01/27 03:06:36;;;;;;;0.30;0.30;;;;;;;18.72;40.55;102313.97;5124753;28;20051;-30
2022/01/27 03:09:02;;;;;;;0.30;0.30;;;;;;;18.71;40.66;102304.00;5093963;28;20397;-30
2022/01/27 03:11:46;;;;;;;0.30;0.30;;;;;;;18.71;40.51;102298.50;5127501;28;20047;-30
2022/01/27 03:14:13;;;;;;;0.20;0.20;;;;;;;18.70;40.70;102307.03;5106677;28;20039;-31
2022/01/27 03:16:39;;;;;;;0.22;0.22;;;;;;;18.72;40.70;102304.84;5128235;28;20122;-30
2022/01/27 03:19:05;;;;;;;0.25;0.25;;;;;;;18.72;40.63;102307.59;5123935;28;20170;-30
2022/01/27 03:21:31;;;;;;;0.20;0.20;;;;;;;18.72;40.55;102302.09;5110009;28;20477;-30
2022/01/27 03:23:57;;;;;;;0.20;0.20;;;;;;;18.71;40.60;102295.72;5124742;28;20039;-30
2022/01/27 03:26:23;;;;;;;0.30;0.30;;;;;;;18.72;40.52;102282.78;5127644;28;20329;-30
2022/01/27 03:28:49;;;;;;;0.30;0.30;;;;;;;18.71;40.58;102272.81;5128244;28;20039;-30
2022/01/27 03:31:15;;;;;;;0.30;0.30;;;;;;;18.71;40.69;102272.81;5108920;28;20046;-30
2022/01/27 03:33:42;;;;;;;0.20;0.20;;;;;;;18.71;40.42;102259.84;5108991;28;20047;-30
2022/01/27 03:36:08;;;;;;;0.30;0.30;;;;;;;18.71;40.67;102262.63;5127104;28;20137;-30
2022/01/27 03:38:34;;;;;;;0.20;0.20;;;;;;;18.70;40.50;102254.59;5129694;28;20035;-30
2022/01/27 03:41:04;;;;;;;0.20;0.20;;;;;;;18.71;40.53;102256.25;5106460;28;20043;-30
2022/01/27 03:43:29;;;;;;;0.28;0.28;;;;;;;18.71;40.72;102256.25;5122368;28;20355;-30
2022/01/27 03:45:55;;;;;;;0.30;0.30;;;;;;;18.72;40.38;102256.00;5124782;28;20047;-30
2022/01/27 03:48:21;;;;;;;0.25;0.25;;;;;;;18.71;40.71;102251.56;5127310;28;20062;-30
2022/01/27 03:50:46;;;;;;;0.20;0.20;;;;;;;18.71;40.51;102256.25;5108841;28;20592;-30
2022/01/27 03:53:14;;;;;;;0.30;0.30;;;;;;;18.71;40.42;102265.38;5125803;28;20039;-30
2022/01/27 03:55:40;;;;;;;0.30;0.30;;;;;;;18.72;40.58;102258.75;5123609;28;20054;-30
2022/01/27 03:58:06;;;;;;;0.20;0.20;;;;;;;18.72;40.61;102264.28;5122745;28;20074;-30
2022/01/27 04:00:33;;;;;;;0.20;0.20;;;;;;;18.70;40.64;102263.72;5125068;28;20054;-31
2022/01/27 04:03:03;;;;;;;0.30;0.30;;;;;;;18.69;40.61;102259.25;5116281;28;20039;-30
2022/01/27 04:05:36;;;;;;;0.30;0.30;;;;;;;18.69;40.81;102255.63;5129303;28;20489;-30
2022/01/27 04:08:03;;;;;;;0.30;0.30;;;;;;;18.70;40.61;102260.13;5122997;28;20081;-30
2022/01/27 04:10:29;;;;;;;0.25;0.25;;;;;;;18.70;40.61;102252.66;5108758;28;20401;-30
2022/01/27 04:12:55;;;;;;;0.30;0.30;;;;;;;18.71;40.42;102246.06;5126443;28;20054;-30
2022/01/27 04:15:20;;;;;;;0.30;0.30;;;;;;;18.70;40.69;102238.03;5123030;28;20476;-30
2022/01/27 04:17:46;;;;;;;0.30;0.30;;;;;;;18.70;40.58;102232.50;5126119;27;20534;-30
2022/01/27 04:20:12;;;;;;;0.20;0.20;;;;;;;18.70;40.56;102224.25;5126493;27;20047;-31
2022/01/27 04:22:38;;;;;;;0.20;0.20;;;;;;;18.70;40.66;102216.78;5126373;28;20142;-30
2022/01/27 04:25:04;;;;;;;0.28;0.28;;;;;;;18.71;40.74;102220.38;5132341;28;20039;-30
2022/01/27 04:27:33;;;;;;;0.25;0.25;;;;;;;18.69;40.63;102217.00;5130798;28;20316;-30
2022/01/27 04:30:00;;;;;;;0.20;0.20;;;;;;;18.70;40.58;102224.25;5131293;28;20087;-30
2022/01/27 04:32:32;;;;;;;0.20;0.20;;;;;;;18.70;40.60;102218.72;5126847;27;20404;-30
2022/01/27 04:35:02;;;;;;;0.20;0.20;;;;;;;18.71;40.55;102229.50;5130614;28;20039;-30
2022/01/27 04:37:30;;;;;;;0.20;0.20;;;;;;;18.70;40.55;102232.50;5127290;28;20039;-30
2022/01/27 04:40:07;;;;;;;0.20;0.20;;;;;;;18.70;40.66;102222.31;5131907;28;20042;-30
2022/01/27 04:42:47;;;;;;;0.20;0.20;;;;;;;18.70;40.52;102222.31;5127416;28;20071;-30
2022/01/27 04:45:16;;;;;;;0.25;0.25;;;;;;;18.68;40.61;102205.13;5130442;28;21323;-30
2022/01/27 04:47:47;;;;;;;0.20;0.20;;;;;;;18.69;40.73;102203.19;5130951;28;20389;-30
2022/01/27 04:50:12;;;;;;;0.20;0.20;;;;;;;18.69;40.64;102205.94;5129878;28;20043;-30
2022/01/27 04:52:43;;;;;;;0.30;0.30;;;;;;;18.69;40.60;102190.25;5124089;28;20097;-30
2022/01/27 04:55:11;;;;;;;0.20;0.20;;;;;;;18.69;40.72;102173.69;5132246;28;20070;-30
2022/01/27 04:57:40;;;;;;;0.20;0.20;;;;;;;18.70;40.70;102174.56;5131292;28;20047;-30
2022/01/27 05:00:07;;;;;;;0.20;0.20;;;;;;;18.70;40.64;102174.56;5131305;28;20389;-30
2022/01/27 05:05:10;;;;;;;0.30;0.30;;;;;;;18.70;40.72;102152.50;5163837;27;20206;-39
2022/01/27 05:07:55;;;;;;;0.20;0.20;;;;;;;18.69;40.65;102148.00;5165436;27;20042;-39
2022/01/27 05:10:24;;;;;;;0.20;0.20;;;;;;;18.68;40.73;102149.94;5165168;27;20044;-38
2022/01/27 05:12:55;;;;;;;0.20;0.20;;;;;;;18.68;40.75;102143.56;5160015;27;20046;-37
2022/01/27 05:15:21;;;;;;;0.20;0.20;;;;;;;18.68;40.62;102147.16;5166762;27;20053;-37
2022/01/27 05:17:47;;;;;;;0.20;0.20;;;;;;;18.69;40.63;102146.09;5162937;27;20121;-40
2022/01/27 05:20:13;;;;;;;0.30;0.30;;;;;;;18.68;40.60;102144.41;5166468;27;20038;-34
2022/01/27 05:22:38;;;;;;;0.30;0.30;;;;;;;18.69;40.59;102142.47;5160750;27;20039;-37
2022/01/27 05:25:04;;;;;;;0.30;0.30;;;;;;;18.68;40.69;102130.63;5140166;27;20477;-38
2022/01/27 05:27:29;;;;;;;0.20;0.20;;;;;;;18.68;40.54;102132.53;5139326;27;20047;-34
2022/01/27 05:30:00;;;;;;;0.30;0.30;;;;;;;18.69;40.77;102135.06;5165417;27;20500;-38
2022/01/27 05:32:25;;;;;;;0.30;0.30;;;;;;;18.69;40.71;102129.56;5154769;27;20046;-36
2022/01/27 05:34:51;;;;;;;0.20;0.20;;;;;;;18.69;40.71;102134.19;5162074;27;20412;-34
2022/01/27 05:37:16;;;;;;;0.20;0.20;;;;;;;18.68;40.64;102130.63;5160435;27;20046;-36
2022/01/27 05:39:42;;;;;;;0.20;0.20;;;;;;;18.68;40.58;102118.75;5157649;27;20045;-35
2022/01/27 05:42:08;;;;;;;0.20;0.20;;;;;;;18.70;40.55;102133.19;5156412;27;20050;-37
2022/01/27 05:44:34;;;;;;;0.25;0.25;;;;;;;18.70;40.72;102133.19;5160897;27;20050;-36
2022/01/27 05:47:00;;;;;;;0.20;0.20;;;;;;;18.69;40.58;102129.56;5166826;27;20399;-36
2022/01/27 05:49:26;;;;;;;0.20;0.20;;;;;;;18.69;40.70;102114.88;5158515;27;20039;-35
2022/01/27 05:51:54;;;;;;;0.20;0.20;;;;;;;18.69;40.61;102115.75;5161974;27;20094;-39
2022/01/27 05:54:20;;;;;;;0.20;0.20;;;;;;;18.69;40.73;102109.38;5156062;27;20039;-37
2022/01/27 05:56:46;;;;;;;0.30;0.30;;;;;;;18.68;40.45;102103.03;5161425;27;20070;-38
2022/01/27 05:59:11;;;;;;;0.30;0.30;;;;;;;18.69;40.56;102099.19;5158694;27;20495;-38
2022/01/27 06:01:37;;;;;;;0.20;0.20;;;;;;;18.69;40.52;102096.44;5162213;27;20058;-38
2022/01/27 06:04:03;;;;;;;0.30;0.30;;;;;;;18.68;40.57;102085.63;5160265;27;20066;-38
2022/01/27 06:06:30;;;;;;;0.20;0.20;;;;;;;18.69;40.56;102088.16;5161679;27;20111;-36
2022/01/27 06:08:55;;;;;;;0.22;0.22;;;;;;;18.69;40.63;102082.63;5164305;27;20536;-34
2022/01/27 06:11:21;;;;;;;0.30;0.30;;;;;;;18.68;40.62;102077.34;5160841;27;20371;-35
2022/01/27 06:13:48;;;;;;;0.20;0.20;;;;;;;18.69;40.77;102074.38;5155936;27;20046;-36
2022/01/27 06:16:14;;;;;;;0.30;0.30;;;;;;;18.69;40.55;102074.38;5150504;27;20038;-38
2022/01/27 06:18:40;;;;;;;0.20;0.20;;;;;;;18.68;40.63;102064.38;5145211;27;20459;-37
2022/01/27 06:21:07;;;;;;;0.20;0.20;;;;;;;18.68;40.72;102058.88;5109395;28;20043;-38
2022/01/27 06:23:33;;;;;;;0.20;0.20;;;;;;;18.68;40.78;102053.34;5129845;27;20051;-38
2022/01/27 06:25:59;;;;;;;0.30;0.30;;;;;;;18.68;40.61;102045.06;5126849;27;20043;-37
2022/01/27 06:28:25;;;;;;;0.20;0.20;;;;;;;18.68;40.78;102044.25;5138521;27;20045;-34
2022/01/27 06:30:51;;;;;;;0.30;0.30;;;;;;;18.69;40.67;102034.88;5130288;27;20039;-37
2022/01/27 06:33:16;;;;;;;0.30;0.30;;;;;;;18.69;40.73;102035.72;5108561;28;20052;-37
2022/01/27 06:35:42;;;;;;;0.30;0.30;;;;;;;18.68;40.75;102025.75;5130116;27;20043;-36
2022/01/27 06:38:08;;;;;;;0.30;0.30;;;;;;;18.67;40.82;102031.53;5135032;27;20493;-38
2022/01/27 06:40:34;;;;;;;0.20;0.20;;;;;;;18.67;40.66;102015.81;5134607;27;20046;-38
2022/01/27 06:43:00;;;;;;;0.30;0.30;;;;;;;18.68;40.66;102019.41;5132626;27;20039;-35
2022/01/27 06:45:26;;;;;;;0.30;0.30;;;;;;;18.67;40.55;102018.56;5137397;27;20060;-35
2022/01/27 06:47:52;;;;;;;0.20;0.20;;;;;;;18.68;40.56;102014.72;5136542;27;20470;-36
2022/01/27 06:50:18;;;;;;;0.30;0.30;;;;;;;18.68;40.55;102017.47;5131524;27;20092;-37
2022/01/27 06:52:44;;;;;;;0.30;0.30;;;;;;;18.67;40.64;102013.06;5108404;27;20092;-39
2022/01/27 06:55:11;;;;;;;0.20;0.20;;;;;;;18.67;40.74;102006.72;5139714;27;20051;-38
2022/01/27 06:57:37;;;;;;;0.20;0.20;;;;;;;18.67;40.81;102012.22;5136422;27;20051;-38
2022/01/27 07:00:05;;;;;;;0.30;0.30;;;;;;;18.68;40.75;102000.09;5132328;27;20054;-40
2022/01/27 07:02:31;;;;;;;0.15;0.15;;;;;;;18.67;40.89;102007.53;5124526;27;20046;-39
2022/01/27 07:04:57;;;;;;;0.20;0.20;;;;;;;18.67;40.84;102013.06;5131258;27;20047;-39
2022/01/27 07:07:23;;;;;;;0.20;0.20;;;;;;;18.69;40.67;102018.31;5130134;27;20689;-38
2022/01/27 07:09:48;;;;;;;0.20;0.20;;;;;;;18.66;40.55;102003.13;5127605;27;20100;-38
2022/01/27 07:12:14;;;;;;;0.30;0.30;;;;;;;18.67;40.77;102018.56;5101506;27;20140;-37
2022/01/27 07:14:40;;;;;;;0.20;0.20;;;;;;;18.68;40.56;102016.66;5131332;27;20055;-38
2022/01/27 07:17:05;;;;;;;0.30;0.30;;;;;;;18.58;39.83;102009.03;5128711;27;20043;-46
2022/01/27 07:19:31;;;;;;;0.20;0.20;;;;;;;18.75;40.77;102004.41;5126968;27;20087;-29
2022/01/27 07:21:57;;;;;;;0.30;0.30;;;;;;;18.82;40.54;101995.94;5125748;27;20051;-33
2022/01/27 07:24:23;;;;;;;0.30;0.30;;;;;;;18.83;40.25;101996.78;5133342;27;20039;-30
2022/01/27 07:26:48;;;;;;;0.30;0.30;;;;;;;18.81;40.38;101994.25;5113460;28;20051;-29
2022/01/27 07:29:14;;;;;;;0.20;0.20;;;;;;;18.83;40.27;102000.38;5126917;27;20079;-29
2022/01/27 07:31:40;;;;;;;0.30;0.30;;;;;;;18.83;40.44;101997.63;5131870;27;20042;-30
2022/01/27 07:34:05;;;;;;;0.20;0.20;;;;;;;18.82;40.58;101979.38;5119584;27;20543;-30
2022/01/27 07:36:31;;;;;;;0.20;0.20;;;;;;;18.82;40.45;101982.13;5132088;27;20460;-29
2022/01/27 07:38:58;;;;;;;0.20;0.20;;;;;;;18.83;40.46;101983.81;5126762;27;20039;-29
2022/01/27 07:41:24;;;;;;;0.30;0.30;;;;;;;18.85;40.45;101978.03;5132444;27;20041;-29
2022/01/27 07:43:49;;;;;;;0.20;0.20;;;;;;;18.84;40.54;101960.66;5128708;27;20047;-29
2022/01/27 07:46:15;;;;;;;0.30;0.30;;;;;;;18.87;40.42;101967.56;5108888;27;20541;-30
2022/01/27 07:48:41;;;;;;;0.30;0.30;;;;;;;18.85;40.80;101958.72;5112285;27;20300;-28
2022/01/27 07:51:08;;;;;;;0.20;0.20;;;;;;;18.90;40.34;101961.53;5127105;27;20057;-31
2022/01/27 07:53:35;;;;;;;0.20;0.20;;;;;;;18.94;40.27;101980.09;5121555;27;20416;-32
2022/01/27 07:56:21;;;;;;;0.30;0.30;;;;;;;18.95;40.35;101991.97;5092560;27;20465;-31
2022/01/27 07:58:47;;;;;;;0.22;0.22;;;;;;;18.94;40.10;101993.06;5121869;27;20038;-31
2022/01/27 08:01:12;;;;;;;0.20;0.20;;;;;;;18.98;40.00;101994.25;5101495;27;20473;-30
2022/01/27 08:03:39;;;;;;;0.20;0.20;;;;;;;19.00;40.18;101972.75;5113841;27;20051;-31
2022/01/27 08:06:05;;;;;;;0.20;0.20;;;;;;;19.01;39.95;101983.53;5119428;27;20046;-30
2022/01/27 08:08:31;;;;;;;0.20;0.20;;;;;;;19.04;39.25;101984.94;5101270;27;20132;-33
2022/01/27 08:10:57;;;;;;;0.30;0.30;;;;;;;19.07;39.14;101992.72;5117922;27;20040;-31
2022/01/27 08:13:22;;;;;;;0.30;0.30;;;;;;;19.08;39.37;102002.66;5097217;27;20119;-33
2022/01/27 08:15:48;;;;;;;0.30;0.30;;;;;;;19.07;39.71;101991.88;5121720;27;20043;-32
2022/01/27 08:18:34;;;;;;;0.20;0.20;;;;;;;19.08;39.76;102005.41;5106555;27;21221;-31
2022/01/27 08:20:59;;;;;;;0.20;0.20;;;;;;;19.10;39.59;102005.19;5129451;27;20051;-32
2022/01/27 08:23:25;;;;;;;0.20;0.20;;;;;;;19.10;39.24;102008.78;5123684;27;20043;-29
2022/01/27 08:26:01;;;;;;;0.20;0.20;;;;;;;19.14;39.27;102004.41;5123793;27;20776;-31
2022/01/27 08:28:33;;;;;;;0.20;0.20;;;;;;;19.16;39.56;101984.81;5126137;27;20058;-31
2022/01/27 08:30:59;;;;;;;0.20;0.20;;;;;;;19.16;39.37;101979.31;5125739;27;20035;-30
2022/01/27 08:33:29;;;;;;;0.20;0.20;;;;;;;19.16;39.43;101980.13;5118959;27;20061;-31
2022/01/27 08:35:56;;;;;;;0.20;0.20;;;;;;;19.17;39.69;101979.06;5124878;27;20043;-31
2022/01/27 08:38:21;;;;;;;0.20;0.20;;;;;;;19.20;39.40;101986.00;5105938;28;20068;-30
2022/01/27 08:40:47;;;;;;;0.28;0.28;;;;;;;19.20;39.42;101995.09;5118303;27;20051;-31
2022/01/27 08:43:13;;;;;;;0.20;0.20;;;;;;;19.21;39.34;101999.56;5124487;27;20553;-31
2022/01/27 08:45:39;;;;;;;0.20;0.20;;;;;;;19.21;39.51;101999.56;5127766;27;20039;-31
2022/01/27 08:48:06;;;;;;;0.30;0.30;;;;;;;19.22;39.47;102006.75;5124961;27;20058;-30
2022/01/27 08:50:32;;;;;;;0.30;0.30;;;;;;;19.26;39.40;102009.84;5112792;28;20529;-33
2022/01/27 08:52:58;;;;;;;0.20;0.20;;;;;;;19.27;39.58;101994.94;5120747;27;20059;-35
2022/01/27 08:55:23;;;;;;;0.30;0.30;;;;;;;19.26;39.35;101999.63;5128857;27;20066;-38
2022/01/27 08:57:50;;;;;;;0.30;0.30;;;;;;;19.28;39.45;101983.63;5104090;27;20130;-30
2022/01/27 09:00:19;;;;;;;0.20;0.20;;;;;;;19.23;39.29;101994.59;5100919;27;20055;-35
2022/01/27 09:02:50;;;;;;;0.22;0.22;;;;;;;19.33;39.26;101998.59;5102963;28;20040;-31
2022/01/27 09:05:16;;;;;;;0.22;0.22;;;;;;;19.36;39.48;101989.81;5110144;27;20130;-34
2022/01/27 09:07:41;;;;;;;0.20;0.20;;;;;;;19.35;39.40;101980.69;5105204;27;20038;-32
2022/01/27 09:10:07;;;;;;;0.20;0.20;;;;;;;19.36;39.45;101987.03;5124546;27;20042;-37
2022/01/27 09:12:33;;;;;;;0.20;0.20;;;;;;;19.36;39.21;101973.22;5092842;27;20778;-36
2022/01/27 09:15:01;;;;;;;0.20;0.20;;;;;;;19.37;39.15;101975.72;5114562;27;20050;-33
2022/01/27 09:17:27;;;;;;;0.20;0.20;;;;;;;19.38;39.37;101973.78;5114920;27;20040;-31
2022/01/27 09:19:53;;;;;;;0.20;0.20;;;;;;;19.38;39.37;101971.84;5099619;27;20051;-34
2022/01/27 09:22:19;;;;;;;0.20;0.20;;;;;;;19.40;39.37;101975.22;5095714;28;20151;-34
2022/01/27 09:24:52;;;;;;;0.30;0.30;;;;;;;19.41;39.31;101970.53;5122563;27;20070;-35
2022/01/27 09:27:18;;;;;;;0.20;0.20;;;;;;;19.40;39.47;101968.88;5097449;27;20552;-32
2022/01/27 09:29:47;;;;;;;0.20;0.20;;;;;;;19.40;39.42;101983.50;5098294;27;20139;-45
2022/01/27 09:32:13;;;;;;;0.20;0.20;;;;;;;19.38;39.76;101974.63;5103657;27;20047;-41
2022/01/27 09:34:38;;;;;;;0.20;0.20;;;;;;;19.49;39.42;101970.06;5097425;28;20112;-43
2022/01/27 09:37:04;;;;;;;0.20;0.20;;;;;;;19.53;39.31;101974.81;5114751;27;20748;-43
2022/01/27 09:39:32;;;;;;;0.20;0.20;;;;;;;19.52;39.54;101973.16;5095167;27;20050;-43
2022/01/27 09:41:58;;;;;;;0.20;0.20;;;;;;;19.52;39.09;101975.94;5118332;27;20111;-42
2022/01/27 09:44:28;;;;;;;0.20;0.20;;;;;;;19.52;39.34;101975.94;5096916;27;20079;-40
2022/01/27 09:46:58;;;;;;;0.20;0.20;;;;;;;19.53;39.30;101979.53;5094598;27;20116;-42
2022/01/27 09:49:36;;;;;;;0.20;0.20;;;;;;;19.52;39.03;101980.63;5097034;27;20071;-40
2022/01/27 09:52:03;;;;;;;0.30;0.30;;;;;;;19.53;39.12;101980.34;5117829;27;20355;-42
2022/01/27 09:54:29;;;;;;;0.20;0.20;;;;;;;19.52;39.47;101980.63;5082091;28;20082;-43
2022/01/27 09:56:56;;;;;;;0.20;0.20;;;;;;;19.52;39.30;101972.34;5127148;27;20533;-42
2022/01/27 09:59:23;;;;;;;0.20;0.20;;;;;;;19.51;39.01;101974.22;5106601;28;20039;-43
2022/01/27 10:02:09;;;;;;;0.20;0.20;;;;;;;19.52;39.26;101977.84;5127017;27;20280;-42
2022/01/27 10:04:55;;;;;;;0.20;0.20;;;;;;;19.50;39.45;101980.03;5107546;27;20039;-44
2022/01/27 10:07:27;;;;;;;0.20;0.20;;;;;;;19.48;39.51;101985.00;5118884;27;20141;-41
2022/01/27 10:09:57;;;;;;;0.30;0.30;;;;;;;19.48;39.20;101974.78;5099501;27;21517;-42
2022/01/27 10:12:27;;;;;;;0.20;0.20;;;;;;;19.47;39.50;101975.88;5113160;27;20482;-42
2022/01/27 10:14:58;;;;;;;0.20;0.20;;;;;;;19.48;39.37;101962.88;5104419;28;20047;-42
2022/01/27 10:17:24;;;;;;;0.20;0.20;;;;;;;19.46;39.51;101965.88;5106289;28;20278;-43
2022/01/27 10:19:52;;;;;;;0.30;0.30;;;;;;;19.47;39.44;101967.56;5118210;27;20112;-42
2022/01/27 10:22:18;;;;;;;0.28;0.28;;;;;;;19.47;39.40;101961.19;5103451;27;20486;-42
2022/01/27 10:24:44;;;;;;;0.20;0.20;;;;;;;19.47;39.24;101962.06;5119280;27;20050;-40
2022/01/27 10:27:29;;;;;;;0.20;0.20;;;;;;;19.54;39.67;101959.91;5120154;27;20051;-38
2022/01/27 10:32:40;;;;;;;0.20;0.20;;;;;;;19.59;39.89;101964.66;5144315;27;20377;-33
2022/01/27 10:35:07;;;;;;;0.20;0.20;;;;;;;19.55;39.74;101958.81;5128182;27;20079;-32
2022/01/27 10:37:58;;;;;;;0.30;0.30;;;;;;;19.54;39.71;101962.66;5128955;27;20490;-32
2022/01/27 10:40:40;;;;;;;0.30;0.30;;;;;;;19.52;39.77;101959.34;5117907;27;20175;-31
2022/01/27 10:43:23;;;;;;;0.20;0.20;;;;;;;19.53;39.95;101965.69;5119876;27;20096;-33
2022/01/27 10:46:15;;;;;;;0.20;0.20;;;;;;;19.52;39.61;101958.50;5131129;27;20464;-32
2022/01/27 10:48:47;;;;;;;0.20;0.20;;;;;;;19.51;39.64;101965.94;5134213;27;20035;-33
2022/01/27 10:51:23;;;;;;;0.30;0.30;;;;;;;19.52;39.77;101956.59;5111564;27;20146;-31
2022/01/27 10:53:59;;;;;;;0.20;0.20;;;;;;;19.51;39.78;101959.59;5102613;27;20698;-32
2022/01/27 10:56:28;;;;;;;0.30;0.30;;;;;;;19.50;39.81;101950.47;5130842;27;20134;-33
2022/01/27 10:58:56;;;;;;;0.25;0.25;;;;;;;19.51;39.58;101957.66;5097976;27;20080;-31
2022/01/27 11:01:23;;;;;;;0.20;0.20;;;;;;;19.49;39.50;101953.50;5133798;27;20070;-31
2022/01/27 11:03:51;;;;;;;0.20;0.20;;;;;;;19.49;39.76;101956.25;5132196;27;20043;-31
2022/01/27 11:06:18;;;;;;;0.30;0.30;;;;;;;19.48;39.58;101943.53;5136613;27;20075;-31
2022/01/27 11:08:44;;;;;;;0.20;0.20;;;;;;;19.48;39.68;101946.31;5128149;27;20081;-33
2022/01/27 11:11:09;;;;;;;0.20;0.20;;;;;;;19.47;39.68;101942.72;5136136;27;20039;-31
2022/01/27 11:13:35;;;;;;;0.20;0.20;;;;;;;19.47;39.59;101937.19;5131031;27;20039;-33
2022/01/27 11:16:03;;;;;;;0.30;0.30;;;;;;;19.46;39.68;101929.13;5128274;27;20064;-32
2022/01/27 11:18:30;;;;;;;0.30;0.30;;;;;;;19.45;39.86;101931.06;5119195;27;20046;-32
2022/01/27 11:21:02;;;;;;;0.20;0.20;;;;;;;19.46;39.81;101927.22;5115185;27;20089;-32
2022/01/27 11:24:00;;;;;;;0.20;0.20;;;;;;;19.44;39.94;101926.66;5113028;27;20040;-32
2022/01/27 11:26:22;;;;;;;0.20;0.20;;;;;;;19.45;39.60;101931.06;5118778;27;20070;-31
2022/01/27 11:28:48;;;;;;;0.20;0.20;;;;;;;19.44;39.70;101931.34;5112304;27;20842;-32
2022/01/27 11:31:29;;;;;;;0.20;0.20;;;;;;;19.43;39.72;101921.38;5134661;27;20074;-31
2022/01/27 11:34:01;;;;;;;0.20;0.20;;;;;;;19.43;39.76;101919.47;5100187;27;20074;-32
2022/01/27 11:36:29;;;;;;;0.25;0.25;;;;;;;19.43;39.86;101918.59;5116536;27;20043;-32
2022/01/27 11:38:55;;;;;;;0.20;0.20;;;;;;;19.42;39.68;101917.75;5127586;27;20039;-32
2022/01/27 11:41:43;;;;;;;0.30;0.30;;;;;;;19.42;39.69;101916.94;5140701;27;20043;-32
2022/01/27 11:44:29;;;;;;;0.20;0.20;;;;;;;19.40;39.89;101903.41;5100195;28;20067;-33
2022/01/27 11:47:18;;;;;;;0.20;0.20;;;;;;;19.41;39.92;101910.59;5115502;27;20178;-31
2022/01/27 11:52:31;;;;;;;0.20;0.20;;;;;;;19.39;39.90;101903.66;5146285;27;20224;-32
2022/01/27 11:58:12;;;;;;;0.20;0.20;;;;;;;19.38;39.84;101897.28;5146141;27;20214;-32
2022/01/27 12:00:39;;;;;;;0.23;0.23;;;;;;;19.37;39.70;101903.91;5132613;27;20078;-33
2022/01/27 12:03:07;;;;;;;0.20;0.20;;;;;;;19.37;39.97;101903.91;5147890;27;20039;-33